sensor_id;sensor_type;location;lat;lon;timestamp;pressure;altitude;pressure_sealevel;temperature;humidity
76464;BME280;65301;46.666;20.110;2024-02-21T00:02:20;101622.59;;;8.05;97.85
76464;BME280;65301;46.666;20.110;2024-02-21T00:05:21;101620.47;;;8.07;97.69
76464;BME280;65301;46.666;20.110;2024-02-21T00:08:24;101621.25;;;8.13;97.67
76464;BME280;65301;46.666;20.110;2024-02-21T00:11:26;101621.00;;;8.14;97.87
76464;BME280;65301;46.666;20.110;2024-02-21T00:14:28;101631.25;;;8.05;98.29
76464;BME280;65301;46.666;20.110;2024-02-21T00:17:29;101622.31;;;8.12;98.08
76464;BME280;65301;46.666;20.110;2024-02-21T00:20:31;101620.47;;;8.12;97.96
76464;BME280;65301;46.666;20.110;2024-02-21T00:23:33;101609.97;;;8.12;96.88
76464;BME280;65301;46.666;20.110;2024-02-21T00:26:35;101609.69;;;8.08;97.73
76464;BME280;65301;46.666;20.110;2024-02-21T00:29:37;101605.22;;;8.14;96.85
76464;BME280;65301;46.666;20.110;2024-02-21T00:32:38;101614.69;;;8.15;97.30
76464;BME280;65301;46.666;20.110;2024-02-21T00:35:40;101609.69;;;8.08;96.92
76464;BME280;65301;46.666;20.110;2024-02-21T00:38:42;101619.66;;;8.01;97.12
76464;BME280;65301;46.666;20.110;2024-02-21T00:41:44;101609.97;;;8.12;97.19
76464;BME280;65301;46.666;20.110;2024-02-21T00:44:45;101600.75;;;8.04;97.44
76464;BME280;65301;46.666;20.110;2024-02-21T00:47:47;101602.06;;;8.07;96.64
76464;BME280;65301;46.666;20.110;2024-02-21T00:50:49;101605.75;;;8.21;96.41
76464;BME280;65301;46.666;20.110;2024-02-21T00:53:51;101606.56;;;8.27;96.81
76464;BME280;65301;46.666;20.110;2024-02-21T00:56:53;101604.16;;;8.05;96.63
76464;BME280;65301;46.666;20.110;2024-02-21T00:59:54;101590.22;;;7.99;97.28
76464;BME280;65301;46.666;20.110;2024-02-21T01:02:56;101601.19;;;7.76;98.88
76464;BME280;65301;46.666;20.110;2024-02-21T01:05:58;101597.78;;;7.86;97.58
76464;BME280;65301;46.666;20.110;2024-02-21T01:09:00;101602.75;;;7.67;98.20
76464;BME280;65301;46.666;20.110;2024-02-21T01:12:02;101591.44;;;7.57;99.38
76464;BME280;65301;46.666;20.110;2024-02-21T01:15:04;101593.75;;;7.48;100.00
76464;BME280;65301;46.666;20.110;2024-02-21T01:18:06;101585.88;;;7.48;99.59
76464;BME280;65301;46.666;20.110;2024-02-21T01:21:08;101589.50;;;7.27;100.00
76464;BME280;65301;46.666;20.110;2024-02-21T01:24:11;101581.38;;;7.38;100.00
76464;BME280;65301;46.666;20.110;2024-02-21T01:27:13;101590.84;;;7.39;100.00
76464;BME280;65301;46.666;20.110;2024-02-21T01:30:15;101580.59;;;7.43;99.84
76464;BME280;65301;46.666;20.110;2024-02-21T01:33:17;101577.16;;;7.32;100.00
76464;BME280;65301;46.666;20.110;2024-02-21T01:36:19;101588.72;;;7.31;100.00
76464;BME280;65301;46.666;20.110;2024-02-21T01:39:21;101576.59;;;7.20;100.00
76464;BME280;65301;46.666;20.110;2024-02-21T01:42:23;101578.41;;;7.15;100.00
76464;BME280;65301;46.666;20.110;2024-02-21T01:45:25;101574.50;;;7.22;100.00
76464;BME280;65301;46.666;20.110;2024-02-21T01:48:27;101570.84;;;7.28;100.00
76464;BME280;65301;46.666;20.110;2024-02-21T01:51:30;101566.09;;;7.20;100.00
76464;BME280;65301;46.666;20.110;2024-02-21T01:54:32;101574.41;;;7.02;100.00
76464;BME280;65301;46.666;20.110;2024-02-21T01:57:34;101569.50;;;7.16;100.00
76464;BME280;65301;46.666;20.110;2024-02-21T02:00:37;101568.97;;;7.24;100.00
76464;BME280;65301;46.666;20.110;2024-02-21T02:03:41;101566.56;;;7.12;100.00
76464;BME280;65301;46.666;20.110;2024-02-21T02:06:43;101576.81;;;7.14;100.00
76464;BME280;65301;46.666;20.110;2024-02-21T02:09:45;101567.78;;;6.95;100.00
76464;BME280;65301;46.666;20.110;2024-02-21T02:12:47;101565.47;;;6.98;100.00
76464;BME280;65301;46.666;20.110;2024-02-21T02:15:49;101570.00;;;7.13;100.00
76464;BME280;65301;46.666;20.110;2024-02-21T02:18:51;101569.78;;;7.29;100.00
76464;BME280;65301;46.666;20.110;2024-02-21T02:21:56;101568.25;;;7.38;99.36
76464;BME280;65301;46.666;20.110;2024-02-21T02:25:00;101573.53;;;7.49;98.63
76464;BME280;65301;46.666;20.110;2024-02-21T02:28:05;101580.38;;;7.55;98.93
76464;BME280;65301;46.666;20.110;2024-02-21T02:31:07;101572.75;;;7.48;98.60
76464;BME280;65301;46.666;20.110;2024-02-21T02:34:08;101584.56;;;7.51;99.22
76464;BME280;65301;46.666;20.110;2024-02-21T02:37:11;101584.81;;;7.39;99.31
76464;BME280;65301;46.666;20.110;2024-02-21T02:40:13;101578.75;;;7.38;99.65
76464;BME280;65301;46.666;20.110;2024-02-21T02:43:15;101588.97;;;7.30;99.38
76464;BME280;65301;46.666;20.110;2024-02-21T02:46:16;101585.00;;;7.22;100.00
76464;BME280;65301;46.666;20.110;2024-02-21T02:49:18;101579.72;;;7.17;99.95
76464;BME280;65301;46.666;20.110;2024-02-21T02:52:20;101589.50;;;7.27;99.68
76464;BME280;65301;46.666;20.110;2024-02-21T02:55:22;101576.63;;;7.25;98.53
76464;BME280;65301;46.666;20.110;2024-02-21T02:58:24;101574.72;;;7.11;99.49
76464;BME280;65301;46.666;20.110;2024-02-21T03:01:26;101579.13;;;7.00;100.00
76464;BME280;65301;46.666;20.110;2024-02-21T03:04:28;101580.44;;;6.98;100.00
76464;BME280;65301;46.666;20.110;2024-02-21T03:07:30;101577.78;;;6.98;99.60
76464;BME280;65301;46.666;20.110;2024-02-21T03:10:33;101579.13;;;7.00;99.36
76464;BME280;65301;46.666;20.110;2024-02-21T03:13:35;101570.66;;;6.88;100.00
76464;BME280;65301;46.666;20.110;2024-02-21T03:16:36;101573.84;;;6.95;99.25
76464;BME280;65301;46.666;20.110;2024-02-21T03:19:38;101571.53;;;7.09;98.49
76464;BME280;65301;46.666;20.110;2024-02-21T03:22:40;101575.22;;;7.08;98.03
76464;BME280;65301;46.666;20.110;2024-02-21T03:25:43;101568.59;;;6.95;98.12
76464;BME280;65301;46.666;20.110;2024-02-21T03:28:45;101571.75;;;6.97;97.75
76464;BME280;65301;46.666;20.110;2024-02-21T03:31:50;101565.13;;;6.90;97.45
76464;BME280;65301;46.666;20.110;2024-02-21T03:34:52;101565.97;;;6.95;97.78
76464;BME280;65301;46.666;20.110;2024-02-21T03:37:53;101569.06;;;6.87;97.66
76464;BME280;65301;46.666;20.110;2024-02-21T03:40:56;101564.06;;;6.86;97.84
76464;BME280;65301;46.666;20.110;2024-02-21T03:43:58;101565.41;;;6.88;96.76
76464;BME280;65301;46.666;20.110;2024-02-21T03:47:00;101560.16;;;6.88;97.03
76464;BME280;65301;46.666;20.110;2024-02-21T03:50:01;101557.50;;;6.83;96.95
76464;BME280;65301;46.666;20.110;2024-02-21T03:53:04;101557.44;;;6.73;98.09
76464;BME280;65301;46.666;20.110;2024-02-21T03:56:06;101566.59;;;6.70;97.47
76464;BME280;65301;46.666;20.110;2024-02-21T03:59:08;101553.50;;;6.70;98.14
76464;BME280;65301;46.666;20.110;2024-02-21T04:02:10;101554.78;;;6.68;98.18
76464;BME280;65301;46.666;20.110;2024-02-21T04:05:15;101546.66;;;6.69;98.09
76464;BME280;65301;46.666;20.110;2024-02-21T04:08:18;101545.66;;;6.76;97.79
76464;BME280;65301;46.666;20.110;2024-02-21T04:11:19;101542.19;;;6.65;98.56
76464;BME280;65301;46.666;20.110;2024-02-21T04:14:21;101549.31;;;6.75;98.07
76464;BME280;65301;46.666;20.110;2024-02-21T04:17:23;101541.72;;;6.78;98.12
76464;BME280;65301;46.666;20.110;2024-02-21T04:20:25;101552.22;;;6.78;97.90
76464;BME280;65301;46.666;20.110;2024-02-21T04:23:27;101547.59;;;7.00;96.73
76464;BME280;65301;46.666;20.110;2024-02-21T04:26:29;101550.84;;;7.17;96.08
76464;BME280;65301;46.666;20.110;2024-02-21T04:29:30;101551.38;;;7.24;95.14
76464;BME280;65301;46.666;20.110;2024-02-21T04:32:32;101546.16;;;7.29;94.99
76464;BME280;65301;46.666;20.110;2024-02-21T04:35:36;101547.72;;;7.25;94.37
76464;BME280;65301;46.666;20.110;2024-02-21T04:38:38;101543.53;;;7.34;94.65
76464;BME280;65301;46.666;20.110;2024-02-21T04:41:40;101545.09;;;7.30;94.21
76464;BME280;65301;46.666;20.110;2024-02-21T04:44:42;101552.41;;;7.18;94.73
76464;BME280;65301;46.666;20.110;2024-02-21T04:47:44;101557.66;;;7.18;94.66
76464;BME280;65301;46.666;20.110;2024-02-21T04:50:46;101559.25;;;7.19;94.72
76464;BME280;65301;46.666;20.110;2024-02-21T04:53:48;101564.75;;;7.13;94.91
76464;BME280;65301;46.666;20.110;2024-02-21T04:56:50;101555.75;;;6.99;95.24
76464;BME280;65301;46.666;20.110;2024-02-21T04:59:54;101561.31;;;7.12;95.01
76464;BME280;65301;46.666;20.110;2024-02-21T05:02:56;101570.44;;;7.00;95.07
76464;BME280;65301;46.666;20.110;2024-02-21T05:05:59;101567.53;;;6.91;95.43
76464;BME280;65301;46.666;20.110;2024-02-21T05:09:01;101565.91;;;6.85;95.81
76464;BME280;65301;46.666;20.110;2024-02-21T05:12:03;101568.03;;;6.88;95.19
76464;BME280;65301;46.666;20.110;2024-02-21T05:15:05;101570.38;;;6.85;95.31
76464;BME280;65301;46.666;20.110;2024-02-21T05:18:07;101574.78;;;6.74;95.96
76464;BME280;65301;46.666;20.110;2024-02-21T05:21:09;101580.31;;;6.72;95.74
76464;BME280;65301;46.666;20.110;2024-02-21T05:24:11;101574.69;;;6.59;96.04
76464;BME280;65301;46.666;20.110;2024-02-21T05:27:13;101574.41;;;6.55;97.08
76464;BME280;65301;46.666;20.110;2024-02-21T05:30:15;101581.72;;;6.53;96.66
76464;BME280;65301;46.666;20.110;2024-02-21T05:33:17;101575.13;;;6.46;97.53
76464;BME280;65301;46.666;20.110;2024-02-21T05:36:24;101589.59;;;6.48;97.64
76464;BME280;65301;46.666;20.110;2024-02-21T05:39:25;101584.03;;;6.45;97.39
76464;BME280;65301;46.666;20.110;2024-02-21T05:42:27;101593.47;;;6.41;98.65
76464;BME280;65301;46.666;20.110;2024-02-21T05:45:29;101587.91;;;6.37;98.13
76464;BME280;65301;46.666;20.110;2024-02-21T05:48:31;101588.22;;;6.41;97.92
76464;BME280;65301;46.666;20.110;2024-02-21T05:51:38;101603.97;;;6.41;98.22
76464;BME280;65301;46.666;20.110;2024-02-21T05:54:40;101603.50;;;6.54;97.30
76464;BME280;65301;46.666;20.110;2024-02-21T05:57:42;101603.03;;;6.57;97.17
76464;BME280;65301;46.666;20.110;2024-02-21T06:00:43;101598.56;;;6.57;96.82
76464;BME280;65301;46.666;20.110;2024-02-21T06:03:45;101605.88;;;6.50;97.55
76464;BME280;65301;46.666;20.110;2024-02-21T06:06:47;101604.81;;;6.51;97.54
76464;BME280;65301;46.666;20.110;2024-02-21T06:09:49;101601.34;;;6.41;97.99
76464;BME280;65301;46.666;20.110;2024-02-21T06:12:51;101604.06;;;6.56;96.88
76464;BME280;65301;46.666;20.110;2024-02-21T06:15:53;101605.34;;;6.53;96.81
76464;BME280;65301;46.666;20.110;2024-02-21T06:18:55;101611.34;;;6.49;96.82
76464;BME280;65301;46.666;20.110;2024-02-21T06:21:57;101604.81;;;6.51;96.75
76464;BME280;65301;46.666;20.110;2024-02-21T06:24:59;101613.75;;;6.50;97.03
76464;BME280;65301;46.666;20.110;2024-02-21T06:28:01;101613.78;;;6.55;96.17
76464;BME280;65301;46.666;20.110;2024-02-21T06:31:04;101618.31;;;6.65;95.48
76464;BME280;65301;46.666;20.110;2024-02-21T06:34:06;101632.25;;;6.70;95.10
76464;BME280;65301;46.666;20.110;2024-02-21T06:37:08;101628.13;;;6.85;94.91
76464;BME280;65301;46.666;20.110;2024-02-21T06:40:10;101638.94;;;6.88;94.30
76464;BME280;65301;46.666;20.110;2024-02-21T06:43:12;101639.44;;;6.85;94.80
76464;BME280;65301;46.666;20.110;2024-02-21T06:46:27;101637.66;;;6.96;94.71
76464;BME280;65301;46.666;20.110;2024-02-21T06:49:35;101637.63;;;6.91;95.24
76464;BME280;65301;46.666;20.110;2024-02-21T06:52:41;101639.09;;;7.13;94.20
76464;BME280;65301;46.666;20.110;2024-02-21T06:55:43;101641.28;;;7.31;92.31
76464;BME280;65301;46.666;20.110;2024-02-21T06:58:45;101643.06;;;7.26;92.90
76464;BME280;65301;46.666;20.110;2024-02-21T07:01:48;101651.34;;;6.98;92.96
76464;BME280;65301;46.666;20.110;2024-02-21T07:04:51;101645.97;;;6.83;93.94
76464;BME280;65301;46.666;20.110;2024-02-21T07:07:53;101654.03;;;7.08;93.67
76464;BME280;65301;46.666;20.110;2024-02-21T07:10:56;101653.94;;;7.39;91.62
76464;BME280;65301;46.666;20.110;2024-02-21T07:13:58;101652.06;;;7.35;92.13
76464;BME280;65301;46.666;20.110;2024-02-21T07:17:02;101650.09;;;7.72;91.32
76464;BME280;65301;46.666;20.110;2024-02-21T07:20:04;101650.94;;;7.98;90.35
76464;BME280;65301;46.666;20.110;2024-02-21T07:23:07;101645.78;;;8.33;88.38
76464;BME280;65301;46.666;20.110;2024-02-21T07:26:09;101647.63;;;8.58;88.01
76464;BME280;65301;46.666;20.110;2024-02-21T07:29:11;101638.91;;;8.83;86.37
76464;BME280;65301;46.666;20.110;2024-02-21T07:32:13;101642.28;;;9.08;84.95
76464;BME280;65301;46.666;20.110;2024-02-21T07:35:15;101648.25;;;9.34;83.79
76464;BME280;65301;46.666;20.110;2024-02-21T07:38:18;101651.06;;;9.58;82.83
76464;BME280;65301;46.666;20.110;2024-02-21T07:41:20;101652.78;;;9.87;80.83
76464;BME280;65301;46.666;20.110;2024-02-21T07:44:22;101655.81;;;10.15;80.10
76464;BME280;65301;46.666;20.110;2024-02-21T07:47:23;101651.34;;;10.44;76.63
76464;BME280;65301;46.666;20.110;2024-02-21T07:50:26;101652.47;;;10.66;75.48
76464;BME280;65301;46.666;20.110;2024-02-21T07:53:31;101650.50;;;10.82;72.83
76464;BME280;65301;46.666;20.110;2024-02-21T07:56:33;101642.69;;;10.96;71.00
76464;BME280;65301;46.666;20.110;2024-02-21T07:59:35;101649.72;;;11.29;69.82
76464;BME280;65301;46.666;20.110;2024-02-21T08:02:39;101642.84;;;11.75;68.17
76464;BME280;65301;46.666;20.110;2024-02-21T08:05:40;101642.09;;;12.58;65.63
76464;BME280;65301;46.666;20.110;2024-02-21T08:08:42;101636.78;;;13.17;62.31
76464;BME280;65301;46.666;20.110;2024-02-21T08:11:44;101636.41;;;13.38;61.42
76464;BME280;65301;46.666;20.110;2024-02-21T08:14:47;101636.16;;;13.48;59.75
76464;BME280;65301;46.666;20.110;2024-02-21T08:17:59;101625.50;;;13.75;59.12
76464;BME280;65301;46.666;20.110;2024-02-21T08:21:03;101627.19;;;14.29;56.86
76464;BME280;65301;46.666;20.110;2024-02-21T08:24:05;101628.91;;;14.78;55.28
76464;BME280;65301;46.666;20.110;2024-02-21T08:27:07;101632.53;;;15.38;52.55
76464;BME280;65301;46.666;20.110;2024-02-21T08:30:09;101629.66;;;15.74;51.70
76464;BME280;65301;46.666;20.110;2024-02-21T08:33:11;101624.63;;;15.64;51.54
76464;BME280;65301;46.666;20.110;2024-02-21T08:36:17;101621.66;;;15.65;50.50
76464;BME280;65301;46.666;20.110;2024-02-21T08:39:20;101622.44;;;16.00;49.86
76464;BME280;65301;46.666;20.110;2024-02-21T08:42:22;101623.69;;;16.20;48.28
76464;BME280;65301;46.666;20.110;2024-02-21T08:45:25;101616.91;;;16.31;46.43
76464;BME280;65301;46.666;20.110;2024-02-21T08:48:27;101622.91;;;15.85;47.95
76464;BME280;65301;46.666;20.110;2024-02-21T08:51:29;101630.56;;;15.52;48.05
76464;BME280;65301;46.666;20.110;2024-02-21T08:54:31;101622.94;;;15.11;47.46
76464;BME280;65301;46.666;20.110;2024-02-21T08:57:34;101626.78;;;14.97;49.01
76464;BME280;65301;46.666;20.110;2024-02-21T09:00:38;101619.38;;;14.54;51.38
76464;BME280;65301;46.666;20.110;2024-02-21T09:03:39;101617.56;;;14.63;51.53
76464;BME280;65301;46.666;20.110;2024-02-21T09:06:44;101622.09;;;14.94;49.56
76464;BME280;65301;46.666;20.110;2024-02-21T09:09:48;101625.63;;;15.28;47.55
76464;BME280;65301;46.666;20.110;2024-02-21T09:12:51;101623.28;;;15.27;46.41
76464;BME280;65301;46.666;20.110;2024-02-21T09:15:53;101626.31;;;15.43;46.94
76464;BME280;65301;46.666;20.110;2024-02-21T09:18:54;101624.00;;;15.58;47.05
76464;BME280;65301;46.666;20.110;2024-02-21T09:21:56;101629.72;;;15.34;47.45
76464;BME280;65301;46.666;20.110;2024-02-21T09:24:58;101623.41;;;15.22;46.96
76464;BME280;65301;46.666;20.110;2024-02-21T09:28:02;101630.31;;;15.23;47.47
76464;BME280;65301;46.666;20.110;2024-02-21T09:31:04;101625.56;;;15.03;47.31
76464;BME280;65301;46.666;20.110;2024-02-21T09:34:06;101620.63;;;14.79;46.70
76464;BME280;65301;46.666;20.110;2024-02-21T09:37:08;101623.34;;;14.96;47.09
76464;BME280;65301;46.666;20.110;2024-02-21T09:40:10;101625.00;;;14.84;47.61
76464;BME280;65301;46.666;20.110;2024-02-21T09:43:17;101627.84;;;15.44;46.61
76464;BME280;65301;46.666;20.110;2024-02-21T09:47:02;101620.19;;;15.42;46.57
76464;BME280;65301;46.666;20.110;2024-02-21T09:50:07;101616.63;;;15.55;46.87
76464;BME280;65301;46.666;20.110;2024-02-21T09:53:12;101605.88;;;15.12;45.44
76464;BME280;65301;46.666;20.110;2024-02-21T09:56:15;101622.75;;;15.47;48.46
76464;BME280;65301;46.666;20.110;2024-02-21T09:59:23;101613.81;;;16.12;45.37
76464;BME280;65301;46.666;20.110;2024-02-21T10:02:26;101613.03;;;15.68;47.50
76464;BME280;65301;46.666;20.110;2024-02-21T10:05:28;101605.25;;;15.15;46.89
76464;BME280;65301;46.666;20.110;2024-02-21T10:08:30;101615.66;;;14.55;47.55
76464;BME280;65301;46.666;20.110;2024-02-21T10:11:31;101615.53;;;14.16;49.29
76464;BME280;65301;46.666;20.110;2024-02-21T10:14:39;101620.59;;;14.26;49.31
76464;BME280;65301;46.666;20.110;2024-02-21T10:17:41;101621.75;;;14.12;49.08
76464;BME280;65301;46.666;20.110;2024-02-21T10:20:43;101621.31;;;14.32;48.29
76464;BME280;65301;46.666;20.110;2024-02-21T10:23:49;101618.88;;;14.75;48.00
76464;BME280;65301;46.666;20.110;2024-02-21T10:27:08;101614.34;;;14.22;48.91
76464;BME280;65301;46.666;20.110;2024-02-21T10:30:14;101612.06;;;13.93;49.00
76464;BME280;65301;46.666;20.110;2024-02-21T10:33:16;101605.88;;;13.62;48.58
76464;BME280;65301;46.666;20.110;2024-02-21T10:36:29;101609.72;;;14.14;48.40
76464;BME280;65301;46.666;20.110;2024-02-21T10:39:39;101594.56;;;13.70;50.21
76464;BME280;65301;46.666;20.110;2024-02-21T10:42:42;101600.44;;;13.31;50.59
76464;BME280;65301;46.666;20.110;2024-02-21T10:45:45;101596.47;;;13.02;50.76
76464;BME280;65301;46.666;20.110;2024-02-21T10:49:07;101598.38;;;13.01;51.33
76464;BME280;65301;46.666;20.110;2024-02-21T10:55:37;101587.38;;;12.94;51.34
76464;BME280;65301;46.666;20.110;2024-02-21T10:58:41;101568.59;;;12.77;52.58
76464;BME280;65301;46.666;20.110;2024-02-21T11:01:44;101577.13;;;12.88;53.40
76464;BME280;65301;46.666;20.110;2024-02-21T11:04:47;101566.38;;;13.83;52.43
76464;BME280;65301;46.666;20.110;2024-02-21T11:07:50;101562.31;;;14.30;51.22
76464;BME280;65301;46.666;20.110;2024-02-21T11:10:56;101573.38;;;14.45;50.14
76464;BME280;65301;46.666;20.110;2024-02-21T11:14:08;101567.53;;;14.35;49.82
76464;BME280;65301;46.666;20.110;2024-02-21T11:17:18;101561.31;;;14.79;49.40
76464;BME280;65301;46.666;20.110;2024-02-21T11:20:20;101566.13;;;15.24;46.98
76464;BME280;65301;46.666;20.110;2024-02-21T11:23:26;101560.25;;;14.80;48.27
76464;BME280;65301;46.666;20.110;2024-02-21T11:26:30;101556.22;;;14.29;50.13
76464;BME280;65301;46.666;20.110;2024-02-21T11:29:32;101554.84;;;14.10;50.72
76464;BME280;65301;46.666;20.110;2024-02-21T11:32:35;101551.63;;;15.65;46.99
76464;BME280;65301;46.666;20.110;2024-02-21T11:35:37;101547.34;;;15.21;47.43
76464;BME280;65301;46.666;20.110;2024-02-21T11:38:39;101551.97;;;14.90;47.29
76464;BME280;65301;46.666;20.110;2024-02-21T11:41:41;101546.28;;;14.65;48.67
76464;BME280;65301;46.666;20.110;2024-02-21T11:44:43;101543.69;;;15.00;48.02
76464;BME280;65301;46.666;20.110;2024-02-21T11:47:44;101536.91;;;14.77;47.79
76464;BME280;65301;46.666;20.110;2024-02-21T11:51:05;101532.34;;;15.42;46.32
76464;BME280;65301;46.666;20.110;2024-02-21T11:54:12;101524.91;;;17.95;42.17
76464;BME280;65301;46.666;20.110;2024-02-21T11:57:29;101524.38;;;20.33;37.10
76464;BME280;65301;46.666;20.110;2024-02-21T12:00:30;101519.22;;;21.45;33.70
76464;BME280;65301;46.666;20.110;2024-02-21T12:03:33;101513.94;;;22.35;32.36
76464;BME280;65301;46.666;20.110;2024-02-21T12:06:45;101512.53;;;21.96;31.89
76464;BME280;65301;46.666;20.110;2024-02-21T12:09:51;101506.31;;;23.19;31.23
76464;BME280;65301;46.666;20.110;2024-02-21T12:13:04;101513.09;;;23.06;30.97
76464;BME280;65301;46.666;20.110;2024-02-21T12:16:07;101507.19;;;23.27;30.76
76464;BME280;65301;46.666;20.110;2024-02-21T12:19:22;101505.91;;;22.62;30.48
76464;BME280;65301;46.666;20.110;2024-02-21T12:22:25;101497.59;;;23.30;29.80
76464;BME280;65301;46.666;20.110;2024-02-21T12:25:28;101506.22;;;23.75;29.53
76464;BME280;65301;46.666;20.110;2024-02-21T12:28:30;101499.09;;;23.97;29.02
76464;BME280;65301;46.666;20.110;2024-02-21T12:31:32;101485.25;;;24.49;28.28
76464;BME280;65301;46.666;20.110;2024-02-21T12:34:34;101479.41;;;23.93;28.35
76464;BME280;65301;46.666;20.110;2024-02-21T12:37:53;101483.72;;;24.52;28.33
76464;BME280;65301;46.666;20.110;2024-02-21T12:40:55;101478.75;;;24.54;27.52
76464;BME280;65301;46.666;20.110;2024-02-21T12:43:59;101485.19;;;22.92;30.17
76464;BME280;65301;46.666;20.110;2024-02-21T12:47:01;101476.25;;;23.47;29.16
76464;BME280;65301;46.666;20.110;2024-02-21T12:50:03;101469.13;;;22.99;28.99
76464;BME280;65301;46.666;20.110;2024-02-21T12:53:05;101471.97;;;21.24;30.85
76464;BME280;65301;46.666;20.110;2024-02-21T12:56:20;101463.94;;;22.08;30.03
76464;BME280;65301;46.666;20.110;2024-02-21T12:59:22;101469.88;;;22.70;30.44
76464;BME280;65301;46.666;20.110;2024-02-21T13:02:24;101464.81;;;22.65;30.54
76464;BME280;65301;46.666;20.110;2024-02-21T13:05:26;101454.81;;;22.16;30.64
76464;BME280;65301;46.666;20.110;2024-02-21T13:08:30;101456.56;;;22.05;30.99
76464;BME280;65301;46.666;20.110;2024-02-21T13:11:31;101452.53;;;21.12;32.33
76464;BME280;65301;46.666;20.110;2024-02-21T13:14:33;101454.44;;;21.11;33.24
76464;BME280;65301;46.666;20.110;2024-02-21T13:17:36;101451.56;;;20.85;33.69
76464;BME280;65301;46.666;20.110;2024-02-21T13:20:38;101453.16;;;21.05;32.95
76464;BME280;65301;46.666;20.110;2024-02-21T13:23:40;101445.22;;;20.93;32.33
76464;BME280;65301;46.666;20.110;2024-02-21T13:26:42;101448.25;;;20.22;33.59
76464;BME280;65301;46.666;20.110;2024-02-21T13:29:44;101442.69;;;20.31;35.02
76464;BME280;65301;46.666;20.110;2024-02-21T13:32:46;101440.44;;;20.17;34.18
76464;BME280;65301;46.666;20.110;2024-02-21T13:35:48;101452.50;;;19.37;34.83
76464;BME280;65301;46.666;20.110;2024-02-21T13:38:51;101442.97;;;18.11;37.65
76464;BME280;65301;46.666;20.110;2024-02-21T13:41:54;101444.31;;;17.60;38.55
76464;BME280;65301;46.666;20.110;2024-02-21T13:44:56;101443.84;;;17.05;39.81
76464;BME280;65301;46.666;20.110;2024-02-21T13:47:58;101443.81;;;17.79;38.71
76464;BME280;65301;46.666;20.110;2024-02-21T13:51:01;101441.03;;;17.75;37.82
76464;BME280;65301;46.666;20.110;2024-02-21T13:54:04;101443.59;;;17.72;38.37
76464;BME280;65301;46.666;20.110;2024-02-21T13:57:06;101444.28;;;17.93;37.97
76464;BME280;65301;46.666;20.110;2024-02-21T14:00:08;101436.72;;;18.07;38.33
76464;BME280;65301;46.666;20.110;2024-02-21T14:03:12;101439.84;;;18.21;38.42
76464;BME280;65301;46.666;20.110;2024-02-21T14:06:14;101437.06;;;18.18;37.73
76464;BME280;65301;46.666;20.110;2024-02-21T14:09:16;101433.75;;;17.64;37.98
76464;BME280;65301;46.666;20.110;2024-02-21T14:12:19;101435.56;;;17.51;37.78
76464;BME280;65301;46.666;20.110;2024-02-21T14:15:23;101426.84;;;17.30;38.30
76464;BME280;65301;46.666;20.110;2024-02-21T14:18:26;101432.66;;;17.11;39.03
76464;BME280;65301;46.666;20.110;2024-02-21T14:21:29;101418.31;;;16.95;39.51
76464;BME280;65301;46.666;20.110;2024-02-21T14:24:31;101418.06;;;16.67;40.31
76464;BME280;65301;46.666;20.110;2024-02-21T14:27:33;101419.72;;;16.51;40.89
76464;BME280;65301;46.666;20.110;2024-02-21T14:30:35;101417.03;;;16.22;41.29
76464;BME280;65301;46.666;20.110;2024-02-21T14:33:37;101410.09;;;15.92;42.32
76464;BME280;65301;46.666;20.110;2024-02-21T14:36:39;101411.47;;;15.52;43.12
76464;BME280;65301;46.666;20.110;2024-02-21T14:39:42;101413.50;;;15.03;44.57
76464;BME280;65301;46.666;20.110;2024-02-21T14:42:45;101411.91;;;14.85;44.91
76464;BME280;65301;46.666;20.110;2024-02-21T14:45:48;101411.59;;;14.69;45.48
76464;BME280;65301;46.666;20.110;2024-02-21T14:48:50;101400.94;;;14.44;46.30
76464;BME280;65301;46.666;20.110;2024-02-21T14:51:52;101405.00;;;14.11;47.24
76464;BME280;65301;46.666;20.110;2024-02-21T14:54:54;101406.03;;;13.92;47.23
76464;BME280;65301;46.666;20.110;2024-02-21T14:57:56;101401.91;;;13.86;48.32
76464;BME280;65301;46.666;20.110;2024-02-21T15:00:57;101408.19;;;13.60;48.91
76464;BME280;65301;46.666;20.110;2024-02-21T15:04:00;101400.78;;;13.48;47.87
76464;BME280;65301;46.666;20.110;2024-02-21T15:07:05;101400.41;;;13.41;49.58
76464;BME280;65301;46.666;20.110;2024-02-21T15:10:07;101401.88;;;13.25;49.79
76464;BME280;65301;46.666;20.110;2024-02-21T15:13:11;101397.59;;;13.02;51.11
76464;BME280;65301;46.666;20.110;2024-02-21T15:16:14;101404.16;;;12.82;52.06
76464;BME280;65301;46.666;20.110;2024-02-21T15:19:16;101400.03;;;12.76;51.53
76464;BME280;65301;46.666;20.110;2024-02-21T15:22:17;101403.84;;;12.84;51.71
76464;BME280;65301;46.666;20.110;2024-02-21T15:25:21;101406.91;;;12.77;51.99
76464;BME280;65301;46.666;20.110;2024-02-21T15:28:24;101400.53;;;12.64;51.15
76464;BME280;65301;46.666;20.110;2024-02-21T15:31:26;101400.75;;;12.54;52.25
76464;BME280;65301;46.666;20.110;2024-02-21T15:34:28;101399.78;;;12.23;55.53
76464;BME280;65301;46.666;20.110;2024-02-21T15:37:30;101406.81;;;12.00;56.58
76464;BME280;65301;46.666;20.110;2024-02-21T15:40:32;101397.44;;;12.22;53.40
76464;BME280;65301;46.666;20.110;2024-02-21T15:43:37;101402.84;;;12.17;53.53
76464;BME280;65301;46.666;20.110;2024-02-21T15:46:40;101409.69;;;12.18;53.82
76464;BME280;65301;46.666;20.110;2024-02-21T15:49:42;101403.72;;;12.12;54.13
76464;BME280;65301;46.666;20.110;2024-02-21T15:52:44;101404.97;;;12.01;54.58